createdAt,value
2023-03-08T00:01:04.148Z,3.60
2023-03-08T00:03:32.218Z,3.30
2023-03-08T00:06:00.254Z,3.10
2023-03-08T00:08:28.298Z,3.67
2023-03-08T00:10:57.687Z,2.73
2023-03-08T00:13:25.818Z,2.93
2023-03-08T00:15:54.140Z,3.30
2023-03-08T00:18:22.813Z,5.33
2023-03-08T00:21:00.323Z,3.03
2023-03-08T00:23:28.643Z,3.60
2023-03-08T00:25:58.045Z,3.70
2023-03-08T00:28:26.236Z,3.37
2023-03-08T00:30:58.258Z,5.23
2023-03-08T00:33:26.891Z,3.70
2023-03-08T00:35:59.369Z,3.47
2023-03-08T00:38:28.088Z,3.07
2023-03-08T00:40:57.492Z,4.13
2023-03-08T00:43:25.541Z,3.40
2023-03-08T00:45:53.700Z,3.27
2023-03-08T00:48:22.203Z,2.23
2023-03-08T00:50:50.441Z,3.00
2023-03-08T00:53:18.596Z,3.50
2023-03-08T00:55:51.277Z,3.00
2023-03-08T00:58:21.556Z,4.03
2023-03-08T01:00:49.976Z,5.57
2023-03-08T01:03:19.196Z,2.50
2023-03-08T01:05:50.784Z,3.17
2023-03-08T01:08:20.028Z,4.40
2023-03-08T01:10:49.442Z,3.03
2023-03-08T01:13:18.101Z,5.63
2023-03-08T01:15:48.280Z,4.70
2023-03-08T01:18:16.429Z,3.40
2023-03-08T01:20:44.488Z,3.27
2023-03-08T01:23:12.809Z,4.63
2023-03-08T01:25:40.852Z,4.93
2023-03-08T01:28:08.875Z,2.80
2023-03-08T01:30:37.017Z,4.30
2023-03-08T01:33:06.474Z,5.53
2023-03-08T01:35:34.497Z,3.70
2023-03-08T01:38:02.563Z,5.80
2023-03-08T01:40:30.576Z,3.00
2023-03-08T01:42:58.609Z,3.77
2023-03-08T01:46:05.666Z,3.20
2023-03-08T01:48:39.610Z,3.70
2023-03-08T01:51:10.408Z,4.07
2023-03-08T01:53:40.928Z,2.43
2023-03-08T01:56:13.687Z,5.73
2023-03-08T01:58:45.266Z,4.00
2023-03-08T02:01:13.491Z,8.90
2023-03-08T02:03:43.026Z,2.80
2023-03-08T02:06:11.328Z,3.40
2023-03-08T02:08:39.402Z,4.60
2023-03-08T02:11:07.468Z,2.40
2023-03-08T02:13:35.641Z,4.37
2023-03-08T02:16:05.863Z,2.93
2023-03-08T02:18:33.889Z,4.03
2023-03-08T02:21:03.318Z,3.60
2023-03-08T02:23:32.729Z,3.00
2023-03-08T02:26:03.867Z,3.33
2023-03-08T02:28:33.430Z,2.93
2023-03-08T02:31:01.467Z,2.73
2023-03-08T02:33:30.597Z,3.67
2023-03-08T02:35:58.684Z,2.90
2023-03-08T02:38:26.764Z,3.77
2023-03-08T02:40:56.264Z,3.33
2023-03-08T02:43:24.366Z,2.03
2023-03-08T02:45:52.713Z,2.40
2023-03-08T02:48:21.160Z,3.43
2023-03-08T02:50:49.206Z,3.80
2023-03-08T02:53:17.266Z,2.97
2023-03-08T02:55:45.279Z,4.90
2023-03-08T02:58:14.713Z,2.27
2023-03-08T03:00:42.804Z,4.30
2023-03-08T03:03:10.947Z,2.97
2023-03-08T03:05:43.342Z,2.43
2023-03-08T03:08:11.707Z,3.80
2023-03-08T03:13:07.937Z,2.90
2023-03-08T03:15:38.978Z,3.00
2023-03-08T03:18:07.234Z,3.17
2023-03-08T03:20:35.429Z,2.13
2023-03-08T03:23:03.477Z,4.40
2023-03-08T03:25:31.570Z,3.37
2023-03-08T03:27:59.599Z,4.27
2023-03-08T03:30:27.627Z,3.40
2023-03-08T03:32:57.022Z,3.07
2023-03-08T03:35:25.078Z,3.50
2023-03-08T03:37:53.089Z,3.23
2023-03-08T03:40:21.415Z,4.93
2023-03-08T03:42:50.348Z,6.20
2023-03-08T03:45:18.529Z,4.30
2023-03-08T03:47:47.287Z,3.40
2023-03-08T03:50:16.832Z,2.80
2023-03-08T03:52:44.878Z,4.07
2023-03-08T03:55:12.949Z,2.20
2023-03-08T03:57:41.378Z,2.50
2023-03-08T04:00:13.156Z,2.30
2023-03-08T04:02:41.267Z,2.60
2023-03-08T04:05:09.641Z,4.00
2023-03-08T04:07:39.052Z,3.30
2023-03-08T04:10:07.973Z,3.10
2023-03-08T04:12:35.996Z,2.90
2023-03-08T04:15:04.308Z,2.67
2023-03-08T04:17:32.343Z,2.87
2023-03-08T04:20:00.357Z,2.10
2023-03-08T04:22:28.392Z,3.50
2023-03-08T04:24:57.785Z,4.97
2023-03-08T04:27:25.979Z,5.60
2023-03-08T04:29:54.075Z,2.77
2023-03-08T04:32:22.172Z,2.30
2023-03-08T04:34:50.249Z,3.10
2023-03-08T04:37:18.319Z,2.67
2023-03-08T04:39:47.953Z,3.27
2023-03-08T04:42:17.432Z,3.00
2023-03-08T04:44:45.477Z,2.50
2023-03-08T04:47:13.502Z,2.80
2023-03-08T04:49:41.525Z,2.63
2023-03-08T04:52:09.546Z,3.07
2023-03-08T04:54:37.577Z,2.70
2023-03-08T04:57:05.810Z,4.20
2023-03-08T04:59:35.395Z,4.00
2023-03-08T05:02:04.262Z,4.00
2023-03-08T05:04:32.395Z,3.10
2023-03-08T05:07:00.437Z,2.33
2023-03-08T05:09:28.505Z,2.97
2023-03-08T05:11:58.514Z,2.87
2023-03-08T05:14:26.603Z,6.30
2023-03-08T05:16:57.809Z,5.67
2023-03-08T05:19:26.240Z,9.13
2023-03-08T05:21:54.297Z,5.07
2023-03-08T05:24:22.542Z,7.23
2023-03-08T05:26:50.634Z,5.10
2023-03-08T05:29:18.661Z,2.80
2023-03-08T05:31:46.830Z,7.40
2023-03-08T05:34:16.286Z,3.80
2023-03-08T05:36:44.322Z,2.73
2023-03-08T05:39:12.415Z,2.70
2023-03-08T05:41:40.457Z,4.03
2023-03-08T05:44:08.561Z,3.10
2023-03-08T05:46:38.195Z,3.23
2023-03-08T05:49:06.827Z,4.50
2023-03-08T05:51:36.262Z,5.60
2023-03-08T05:54:04.305Z,3.37
2023-03-08T05:56:32.460Z,3.93
2023-03-08T05:59:00.483Z,2.67
2023-03-08T06:01:29.109Z,3.53
2023-03-08T06:03:58.671Z,3.00
2023-03-08T06:06:28.443Z,3.27
2023-03-08T06:08:58.226Z,4.03
2023-03-08T06:11:26.524Z,4.03
2023-03-08T06:13:54.701Z,3.63
2023-03-08T06:16:22.905Z,4.83
2023-03-08T06:18:50.966Z,5.60
2023-03-08T06:21:21.204Z,3.27
2023-03-08T06:23:49.546Z,3.63
2023-03-08T06:26:19.158Z,4.27
2023-03-08T06:28:47.207Z,2.83
2023-03-08T06:31:17.502Z,3.17
2023-03-08T06:33:45.525Z,3.90
2023-03-08T06:36:15.877Z,3.00
2023-03-08T06:38:43.918Z,2.77
2023-03-08T06:41:13.649Z,4.93
2023-03-08T06:43:43.369Z,5.00
2023-03-08T06:46:13.247Z,4.20
2023-03-08T06:48:41.852Z,4.20
2023-03-08T06:51:09.979Z,3.50
2023-03-08T06:53:38.688Z,4.07
2023-03-08T06:56:08.812Z,5.97
2023-03-08T06:58:38.360Z,4.70
2023-03-08T07:01:09.677Z,5.83
2023-03-08T07:03:38.521Z,4.93
2023-03-08T07:06:08.244Z,9.17
2023-03-08T07:08:36.477Z,5.63
2023-03-08T07:11:06.602Z,7.10
2023-03-08T07:13:35.154Z,7.77
2023-03-08T07:16:09.071Z,21.03
2023-03-08T07:18:37.145Z,10.30
2023-03-08T07:21:06.011Z,7.30
2023-03-08T07:23:34.265Z,5.27
2023-03-08T07:26:05.764Z,3.40
2023-03-08T07:28:33.845Z,5.73
2023-03-08T07:31:01.880Z,6.50
2023-03-08T07:33:31.276Z,8.70
2023-03-08T07:36:02.307Z,9.07
2023-03-08T07:38:30.690Z,8.50
2023-03-08T07:40:59.132Z,9.80
2023-03-08T07:43:27.232Z,9.30
2023-03-08T07:45:55.403Z,8.50
2023-03-08T07:48:23.428Z,11.63
2023-03-08T07:50:52.838Z,5.23
2023-03-08T07:53:20.872Z,10.20
2023-03-08T07:55:48.946Z,5.40
2023-03-08T07:58:16.997Z,8.37
2023-03-08T08:00:45.170Z,6.10
2023-03-08T08:03:13.258Z,4.27
2023-03-08T08:05:41.396Z,5.37
2023-03-08T08:08:13.784Z,6.63
2023-03-08T08:10:41.865Z,5.47
2023-03-08T08:13:10.068Z,5.23
2023-03-08T08:15:38.103Z,5.90
2023-03-08T08:18:06.414Z,4.70
2023-03-08T08:20:34.510Z,7.53
2023-03-08T08:23:02.659Z,8.67
2023-03-08T08:25:32.080Z,11.10
2023-03-08T08:28:00.117Z,9.40
2023-03-08T08:30:28.156Z,6.40
2023-03-08T08:32:56.169Z,5.93
2023-03-08T08:35:37.265Z,6.37
2023-03-08T08:38:10.307Z,6.87
2023-03-08T08:40:39.826Z,6.07
2023-03-08T08:43:07.871Z,6.17
2023-03-08T08:45:35.943Z,5.87
2023-03-08T08:48:04.296Z,4.33
2023-03-08T08:50:32.344Z,5.90
2023-03-08T08:53:00.494Z,4.53
2023-03-08T08:55:28.569Z,6.90
2023-03-08T08:57:57.964Z,4.80
2023-03-08T09:00:26.200Z,4.23
2023-03-08T09:02:54.317Z,5.57
2023-03-08T09:05:22.616Z,10.00
2023-03-08T09:07:50.957Z,8.80
2023-03-08T09:10:19.189Z,11.50
2023-03-08T09:12:47.334Z,8.30
2023-03-08T09:15:16.885Z,13.33
2023-03-08T09:17:44.941Z,9.17
2023-03-08T09:20:13.649Z,5.60
2023-03-08T09:22:42.159Z,9.87
2023-03-08T09:25:12.424Z,11.40
2023-03-08T09:27:41.919Z,8.17
2023-03-08T09:30:13.823Z,11.63
2023-03-08T09:32:43.293Z,9.63
2023-03-08T09:35:11.681Z,8.53
2023-03-08T09:37:39.752Z,14.10
2023-03-08T09:40:09.688Z,14.27
2023-03-08T09:42:38.686Z,10.20
2023-03-08T09:45:23.369Z,13.90
2023-03-08T09:48:00.124Z,16.63
2023-03-08T09:50:45.228Z,13.17
2023-03-08T09:53:21.381Z,13.00
2023-03-08T09:55:53.858Z,15.27
2023-03-08T09:58:31.606Z,14.27
2023-03-08T10:01:11.009Z,19.77
2023-03-08T10:04:06.517Z,14.03
2023-03-08T10:06:39.538Z,13.43
2023-03-08T10:09:21.824Z,13.47
2023-03-08T10:11:55.077Z,14.90
2023-03-08T10:14:28.305Z,14.83
2023-03-08T10:16:59.191Z,13.90
2023-03-08T10:19:32.417Z,14.70
2023-03-08T10:22:05.638Z,16.03
2023-03-08T10:24:41.635Z,14.20
2023-03-08T10:27:18.837Z,12.90
2023-03-08T10:29:51.672Z,12.37
2023-03-08T10:32:19.836Z,9.30
2023-03-08T10:34:49.670Z,14.50
2023-03-08T10:37:17.813Z,11.67
2023-03-08T10:39:54.832Z,12.87
2023-03-08T10:42:25.497Z,14.43
2023-03-08T10:44:58.043Z,16.00
2023-03-08T10:47:28.065Z,14.50
2023-03-08T10:50:13.204Z,12.50
2023-03-08T10:52:42.133Z,12.07
2023-03-08T10:55:15.274Z,10.03
2023-03-08T10:57:49.412Z,10.17
2023-03-08T11:00:36.497Z,10.90
2023-03-08T11:03:16.305Z,10.57
2023-03-08T11:05:55.437Z,11.17
2023-03-08T11:08:26.572Z,10.33
2023-03-08T11:11:09.096Z,12.57
2023-03-08T11:13:39.293Z,11.37
2023-03-08T11:16:25.921Z,10.13
2023-03-08T11:19:03.122Z,12.87
2023-03-08T11:21:41.812Z,11.07
2023-03-08T11:24:19.976Z,10.60
2023-03-08T11:26:58.748Z,9.80
2023-03-08T11:29:35.369Z,9.83
2023-03-08T11:32:13.198Z,9.37
2023-03-08T11:34:48.139Z,9.37
2023-03-08T11:37:25.324Z,12.10
2023-03-08T11:40:02.816Z,7.80
2023-03-08T11:42:41.071Z,9.30
2023-03-08T11:45:21.201Z,9.97
2023-03-08T11:48:23.257Z,9.00
2023-03-08T11:50:58.976Z,7.00
2023-03-08T11:53:43.835Z,8.83
2023-03-08T11:56:19.057Z,7.83
2023-03-08T11:58:50.984Z,6.07
2023-03-08T12:01:22.410Z,8.23
2023-03-08T12:03:54.172Z,9.17
2023-03-08T12:06:29.494Z,7.80
2023-03-08T12:09:05.537Z,9.50
2023-03-08T12:11:37.464Z,14.13
2023-03-08T12:14:13.575Z,8.27
2023-03-08T12:16:48.429Z,7.00
2023-03-08T12:19:26.237Z,10.03
2023-03-08T12:22:03.442Z,7.07
2023-03-08T12:24:45.424Z,7.70
2023-03-08T12:27:22.766Z,14.10
2023-03-08T12:29:57.617Z,6.40
2023-03-08T12:32:26.565Z,7.33
2023-03-08T12:35:04.203Z,7.67
2023-03-08T12:37:32.477Z,7.20
2023-03-08T12:40:07.403Z,8.70
2023-03-08T12:42:38.629Z,8.53
2023-03-08T12:45:27.938Z,7.77
2023-03-08T12:48:03.577Z,7.73
2023-03-08T12:50:35.272Z,9.57
2023-03-08T12:53:04.142Z,8.17
2023-03-08T12:55:34.573Z,10.70
2023-03-08T12:58:05.416Z,5.47
2023-03-08T13:00:36.480Z,6.93
2023-03-08T13:03:07.329Z,6.80
2023-03-08T13:05:37.587Z,5.30
2023-03-08T13:08:21.263Z,6.60
2023-03-08T13:11:08.371Z,7.27
2023-03-08T13:13:50.002Z,12.33
2023-03-08T13:16:34.094Z,8.93
2023-03-08T13:19:13.045Z,10.90
2023-03-08T13:21:48.515Z,6.20
2023-03-08T13:24:22.185Z,5.37
2023-03-08T13:27:08.372Z,8.37
2023-03-08T13:29:37.081Z,11.40
2023-03-08T13:32:14.841Z,6.73
2023-03-08T13:34:45.514Z,7.60
2023-03-08T13:37:22.550Z,11.03
2023-03-08T13:39:54.200Z,5.63
2023-03-08T13:42:25.709Z,10.03
2023-03-08T13:44:54.209Z,8.10
2023-03-08T13:47:25.539Z,9.90
2023-03-08T13:49:56.398Z,11.57
2023-03-08T13:52:26.556Z,6.90
2023-03-08T13:54:57.279Z,8.60
2023-03-08T13:57:29.027Z,7.07
2023-03-08T13:59:59.484Z,12.37
2023-03-08T14:02:30.270Z,7.03
2023-03-08T14:04:59.806Z,7.20
2023-03-08T14:07:29.720Z,7.73
2023-03-08T14:09:57.944Z,7.33
2023-03-08T14:12:30.511Z,6.10
2023-03-08T14:15:02.223Z,6.00
2023-03-08T14:17:35.139Z,7.47
2023-03-08T14:20:06.913Z,7.00
2023-03-08T14:22:40.259Z,7.53
2023-03-08T14:25:23.044Z,12.10
2023-03-08T14:27:52.645Z,8.20
2023-03-08T14:30:23.315Z,5.93
2023-03-08T14:33:00.996Z,7.50
2023-03-08T14:35:31.088Z,6.80
2023-03-08T14:37:59.512Z,7.97
2023-03-08T14:40:31.459Z,7.80
2023-03-08T14:43:04.627Z,7.77
2023-03-08T14:45:37.907Z,9.60
2023-03-08T14:48:25.839Z,8.50
2023-03-08T14:50:59.100Z,12.70
2023-03-08T14:53:30.424Z,10.53
2023-03-08T14:55:59.206Z,12.23
2023-03-08T14:58:31.708Z,11.50
2023-03-08T15:01:02.011Z,11.13
2023-03-08T15:03:31.755Z,12.23
2023-03-08T15:06:02.482Z,14.90
2023-03-08T15:08:30.959Z,10.73
2023-03-08T15:10:59.017Z,12.83
2023-03-08T15:13:28.434Z,10.60
2023-03-08T15:15:56.488Z,11.23
2023-03-08T15:18:24.549Z,8.83
2023-03-08T15:20:53.398Z,9.53
2023-03-08T15:23:24.971Z,12.13
2023-03-08T15:25:53.258Z,9.17
2023-03-08T15:28:22.970Z,11.53
2023-03-08T15:30:54.656Z,11.60
2023-03-08T15:33:23.339Z,7.77
2023-03-08T15:35:52.148Z,9.80
2023-03-08T15:38:22.748Z,34.13
2023-03-08T15:40:50.883Z,10.93
2023-03-08T15:43:18.938Z,15.20
2023-03-08T15:45:47.045Z,22.97
2023-03-08T15:48:18.266Z,9.27
2023-03-08T15:50:46.761Z,8.40
2023-03-08T15:53:23.323Z,14.60
2023-03-08T15:55:57.741Z,12.70
2023-03-08T15:58:25.946Z,10.77
2023-03-08T16:00:53.971Z,13.23
2023-03-08T16:03:26.098Z,15.03
2023-03-08T16:05:54.242Z,10.57
2023-03-08T16:08:28.544Z,14.27
2023-03-08T16:11:00.199Z,13.13
2023-03-08T16:13:28.264Z,14.30
2023-03-08T16:15:59.515Z,15.80
2023-03-08T16:18:29.640Z,11.93
2023-03-08T16:20:58.547Z,15.53
2023-03-08T16:23:27.246Z,13.00
2023-03-08T16:26:14.736Z,17.33
2023-03-08T16:28:45.034Z,73.47
2023-03-08T16:31:14.189Z,17.93
2023-03-08T16:33:43.850Z,16.80
2023-03-08T16:36:13.042Z,14.57
2023-03-08T16:38:41.186Z,13.50
2023-03-08T16:41:13.256Z,13.37
2023-03-08T16:43:49.528Z,16.00
2023-03-08T16:46:19.271Z,17.10
2023-03-08T16:48:49.939Z,11.70
2023-03-08T16:51:19.558Z,24.70
2023-03-08T16:53:47.703Z,20.00
2023-03-08T16:56:19.403Z,21.80
2023-03-08T16:58:47.744Z,15.80
2023-03-08T17:01:17.873Z,28.63
2023-03-08T17:03:46.047Z,22.97
2023-03-08T17:06:17.605Z,10.67
2023-03-08T17:08:45.999Z,16.77
2023-03-08T17:11:17.556Z,11.30
2023-03-08T17:13:50.834Z,16.30
2023-03-08T17:16:19.715Z,15.70
2023-03-08T17:18:48.048Z,26.27
2023-03-08T17:21:17.788Z,22.80
2023-03-08T17:23:46.055Z,29.67
2023-03-08T17:26:15.733Z,11.93
2023-03-08T17:28:44.200Z,15.97
2023-03-08T17:31:14.761Z,21.97
2023-03-08T17:33:43.368Z,15.93
2023-03-08T17:36:12.992Z,18.83
2023-03-08T17:38:42.968Z,13.87
2023-03-08T17:41:14.972Z,16.30
2023-03-08T17:43:43.126Z,17.60
2023-03-08T17:46:14.841Z,12.70
2023-03-08T17:48:43.105Z,15.37
2023-03-08T17:51:12.987Z,13.80
2023-03-08T17:53:42.762Z,14.90
2023-03-08T17:56:12.253Z,13.50
2023-03-08T17:58:41.002Z,17.67
2023-03-08T18:01:10.590Z,37.00
2023-03-08T18:03:38.873Z,31.13
2023-03-08T18:06:07.855Z,24.63
2023-03-08T18:08:36.781Z,19.20
2023-03-08T18:11:06.500Z,14.60
2023-03-08T18:13:34.560Z,18.87
2023-03-08T18:16:04.463Z,17.13
2023-03-08T18:18:32.965Z,12.87
2023-03-08T18:21:12.520Z,20.00
2023-03-08T18:23:43.292Z,20.93
2023-03-08T18:26:13.710Z,14.10
2023-03-08T18:28:42.343Z,17.03
2023-03-08T18:31:12.392Z,20.03
2023-03-08T18:33:40.521Z,18.37
2023-03-08T18:36:08.973Z,11.50
2023-03-08T18:38:37.550Z,23.70
2023-03-08T18:41:18.019Z,14.50
2023-03-08T18:43:46.838Z,18.43
2023-03-08T18:46:15.482Z,14.70
2023-03-08T18:48:46.395Z,12.70
2023-03-08T18:51:16.534Z,25.43
2023-03-08T18:53:44.819Z,10.80
2023-03-08T18:56:12.999Z,14.57
2023-03-08T18:58:42.607Z,16.53
2023-03-08T19:01:12.789Z,12.63
2023-03-08T19:03:41.446Z,21.17
2023-03-08T19:06:10.015Z,16.93
2023-03-08T19:08:38.425Z,17.30
2023-03-08T19:11:13.557Z,12.30
2023-03-08T19:13:43.476Z,14.67
2023-03-08T19:16:20.137Z,11.73
2023-03-08T19:18:48.960Z,18.47
2023-03-08T19:21:18.895Z,15.57
2023-03-08T19:23:47.169Z,15.57
2023-03-08T19:26:34.009Z,15.40
2023-03-08T19:29:05.264Z,14.20
2023-03-08T19:31:34.308Z,19.63
2023-03-08T19:34:04.782Z,13.63
2023-03-08T19:36:33.704Z,17.93
2023-03-08T19:39:01.835Z,13.07
2023-03-08T19:41:29.926Z,16.43
2023-03-08T19:43:58.193Z,17.53
2023-03-08T19:46:28.003Z,18.47
2023-03-08T19:48:56.636Z,17.90
2023-03-08T19:51:24.703Z,21.10
2023-03-08T19:53:52.722Z,15.70
2023-03-08T19:56:23.805Z,16.43
2023-03-08T19:58:52.264Z,21.83
2023-03-08T20:01:21.293Z,19.27
2023-03-08T20:03:50.775Z,13.63
2023-03-08T20:06:31.588Z,21.17
2023-03-08T20:08:59.847Z,13.93
2023-03-08T20:11:28.131Z,11.10
2023-03-08T20:13:56.249Z,17.10
2023-03-08T20:16:25.983Z,11.00
2023-03-08T20:18:57.351Z,26.67
2023-03-08T20:21:28.102Z,11.60
2023-03-08T20:23:57.485Z,18.70
2023-03-08T20:26:27.446Z,22.50
2023-03-08T20:28:56.203Z,9.17
2023-03-08T20:31:25.131Z,11.17
2023-03-08T20:33:53.213Z,8.20
2023-03-08T20:36:23.628Z,12.63
2023-03-08T20:38:52.287Z,18.73
2023-03-08T20:41:21.919Z,14.57
2023-03-08T20:43:52.066Z,13.07
2023-03-08T20:46:22.323Z,14.03
2023-03-08T20:48:50.792Z,13.93
2023-03-08T20:51:20.810Z,11.60
2023-03-08T20:53:51.925Z,10.70
2023-03-08T20:56:22.407Z,13.80
2023-03-08T20:58:50.798Z,13.53
2023-03-08T21:01:21.193Z,23.60
2023-03-08T21:03:49.779Z,8.00
2023-03-08T21:06:20.045Z,15.73
2023-03-08T21:08:48.664Z,10.10
2023-03-08T21:11:18.584Z,11.10
2023-03-08T21:13:48.768Z,7.87
2023-03-08T21:16:18.319Z,12.27
2023-03-08T21:18:50.301Z,8.87
2023-03-08T21:21:19.807Z,10.83
2023-03-08T21:23:48.030Z,9.10
2023-03-08T21:26:17.462Z,9.67
2023-03-08T21:28:45.498Z,8.10
2023-03-08T21:31:14.820Z,14.83
2023-03-08T21:33:42.987Z,8.93
2023-03-08T21:36:11.323Z,11.27
2023-03-08T21:38:39.382Z,12.40
2023-03-08T21:41:07.568Z,10.40
2023-03-08T21:43:37.051Z,13.23
2023-03-08T21:46:05.786Z,15.20
2023-03-08T21:48:34.110Z,10.67
2023-03-08T21:51:05.559Z,9.80
2023-03-08T21:53:33.591Z,16.07
2023-03-08T21:56:01.649Z,13.23
2023-03-08T21:58:29.717Z,10.63
2023-03-08T22:00:59.128Z,12.77
2023-03-08T22:03:30.706Z,9.90
2023-03-08T22:05:59.376Z,16.33
2023-03-08T22:08:27.977Z,7.70
2023-03-08T22:10:56.344Z,11.30
2023-03-08T22:13:24.416Z,9.80
2023-03-08T22:15:52.441Z,11.90
2023-03-08T22:18:21.906Z,15.17
2023-03-08T22:20:49.997Z,10.77
2023-03-08T22:23:18.059Z,6.57
2023-03-08T22:25:46.060Z,12.03
2023-03-08T22:28:14.233Z,9.97
2023-03-08T22:30:42.890Z,7.23
2023-03-08T22:33:12.079Z,13.87
2023-03-08T22:35:44.697Z,9.83
2023-03-08T22:38:12.820Z,8.13
2023-03-08T22:40:42.263Z,11.30
2023-03-08T22:43:10.904Z,12.30
2023-03-08T22:45:39.064Z,7.03
2023-03-08T22:48:07.918Z,9.90
2023-03-08T22:50:35.945Z,10.77
2023-03-08T22:53:05.358Z,10.23
2023-03-08T22:55:33.378Z,10.97
2023-03-08T22:58:01.419Z,8.40
2023-03-08T23:00:29.736Z,12.13
2023-03-08T23:02:58.533Z,10.40
2023-03-08T23:05:26.615Z,12.47
2023-03-08T23:07:54.667Z,12.50
2023-03-08T23:10:24.270Z,9.70
2023-03-08T23:12:52.588Z,21.40
2023-03-08T23:15:20.602Z,10.83
2023-03-08T23:17:48.655Z,13.97
2023-03-08T23:20:19.872Z,14.30
2023-03-08T23:22:48.197Z,14.37
2023-03-08T23:25:16.384Z,12.20
2023-03-08T23:27:45.881Z,15.13
2023-03-08T23:30:18.130Z,13.37
2023-03-08T23:32:46.253Z,11.63
2023-03-08T23:35:14.375Z,9.93
2023-03-08T23:37:42.471Z,9.40
2023-03-08T23:40:14.123Z,11.30
2023-03-08T23:42:42.471Z,13.73
2023-03-08T23:45:12.413Z,11.77
2023-03-08T23:47:40.514Z,11.27
2023-03-08T23:50:09.750Z,12.30
2023-03-08T23:52:37.782Z,9.17
2023-03-08T23:55:06.688Z,13.60
2023-03-08T23:57:34.751Z,12.73
